Time;durP1;ratioP1;P1;durP2;ratioP2;P2;SDS_P1;SDS_P2;PMS_P1;PMS_P2;Temp;Humidity;BMP_temperature;BMP_pressure;BME280_temperature;BME280_humidity;BME280_pressure;Samples;Min_cycle;Max_cycle;Signal;HPM_P1;HPM_P2
2021/01/27 00:01:47;;;;;;;15.13;10.00;;;2.80;99.90;;;;;;5093212;28;20198;-48
2021/01/27 00:04:13;;;;;;;14.75;10.05;;;3.60;99.90;;;;;;5092483;28;20278;-48
2021/01/27 00:06:40;;;;;;;17.55;9.85;;;3.70;99.90;;;;;;5092567;28;20222;-48
2021/01/27 00:09:07;;;;;;;17.20;11.05;;;3.40;99.90;;;;;;5092924;28;20273;-47
2021/01/27 00:11:34;;;;;;;14.05;9.98;;;3.60;99.90;;;;;;5092718;28;20245;-48
2021/01/27 00:14:00;;;;;;;16.75;10.55;;;3.30;99.90;;;;;;5092434;28;20224;-48
2021/01/27 00:16:26;;;;;;;16.75;10.30;;;3.50;99.90;;;;;;5092652;28;20194;-48
2021/01/27 00:18:54;;;;;;;17.58;11.10;;;3.70;99.90;;;;;;5092639;28;20274;-48
2021/01/27 00:21:20;;;;;;;16.40;11.80;;;3.50;99.90;;;;;;5092987;28;20256;-47
2021/01/27 00:23:47;;;;;;;16.55;11.88;;;3.50;99.90;;;;;;5092685;28;20199;-47
2021/01/27 00:26:13;;;;;;;21.00;12.93;;;3.90;99.90;;;;;;5091409;28;20237;-48
2021/01/27 00:28:39;;;;;;;23.42;13.70;;;3.80;99.90;;;;;;5092510;28;20230;-49
2021/01/27 00:31:06;;;;;;;22.85;14.27;;;3.70;99.90;;;;;;5092309;28;20289;-48
2021/01/27 00:33:32;;;;;;;21.20;13.68;;;3.70;99.90;;;;;;5092130;28;20285;-48
2021/01/27 00:36:00;;;;;;;24.05;15.05;;;2.90;99.90;;;;;;5092558;28;20233;-48
2021/01/27 00:38:28;;;;;;;20.95;15.85;;;4.00;99.90;;;;;;5092466;28;20210;-47
2021/01/27 00:40:56;;;;;;;25.08;15.23;;;3.50;99.90;;;;;;5091111;28;20222;-48
2021/01/27 00:43:24;;;;;;;24.17;15.70;;;3.80;99.90;;;;;;5092212;28;20213;-47
2021/01/27 00:45:51;;;;;;;20.88;14.18;;;3.60;99.90;;;;;;5092608;28;20186;-48
2021/01/27 00:48:17;;;;;;;21.20;14.88;;;4.00;99.90;;;;;;5092321;28;20701;-47
2021/01/27 00:50:44;;;;;;;22.05;14.90;;;3.00;99.90;;;;;;5092298;28;20198;-48
2021/01/27 00:53:11;;;;;;;22.40;14.38;;;3.70;99.90;;;;;;5090469;28;20317;-47
2021/01/27 00:55:45;;;;;;;22.58;14.52;;;3.50;99.90;;;;;;5092286;28;20202;-48
2021/01/27 00:58:11;;;;;;;20.85;15.30;;;3.60;99.90;;;;;;5091914;28;20225;-49
2021/01/27 01:00:40;;;;;;;22.00;16.10;;;3.40;99.90;;;;;;5092207;28;20255;-49
2021/01/27 01:03:12;;;;;;;20.70;14.20;;;3.90;99.90;;;;;;5091080;28;20690;-48
2021/01/27 01:05:40;;;;;;;22.10;16.05;;;3.80;99.90;;;;;;5092514;28;20226;-48
2021/01/27 01:08:08;;;;;;;25.13;16.40;;;3.60;99.90;;;;;;5092387;28;20781;-47
2021/01/27 01:10:37;;;;;;;24.65;16.55;;;3.70;99.90;;;;;;5095120;28;20270;-47
2021/01/27 01:13:06;;;;;;;24.92;16.05;;;3.50;99.90;;;;;;5097590;28;20230;-48
2021/01/27 01:15:33;;;;;;;23.45;15.65;;;3.80;99.90;;;;;;5099187;28;20282;-48
2021/01/27 01:18:00;;;;;;;19.40;14.05;;;3.90;99.90;;;;;;5099791;28;20297;-47
2021/01/27 01:20:27;;;;;;;19.88;14.82;;;3.70;99.90;;;;;;5098866;28;20190;-48
2021/01/27 01:22:54;;;;;;;26.75;15.70;;;3.50;99.90;;;;;;5096793;28;20218;-47
2021/01/27 01:25:23;;;;;;;28.38;15.07;;;2.90;99.90;;;;;;5098563;28;20190;-48
2021/01/27 01:27:51;;;;;;;23.98;14.35;;;3.50;99.90;;;;;;5098489;28;20254;-47
2021/01/27 01:30:24;;;;;;;23.80;15.35;;;3.40;99.90;;;;;;5098498;28;20198;-47
2021/01/27 01:32:50;;;;;;;27.25;16.67;;;3.70;99.90;;;;;;5098124;28;20218;-47
2021/01/27 01:35:19;;;;;;;24.58;15.07;;;3.80;99.90;;;;;;5099436;28;20218;-48
2021/01/27 01:37:45;;;;;;;27.17;15.40;;;3.20;99.90;;;;;;5099049;28;20293;-46
2021/01/27 01:40:15;;;;;;;21.75;14.95;;;3.80;99.90;;;;;;5099134;28;20194;-47
2021/01/27 01:42:42;;;;;;;25.48;16.10;;;3.70;99.90;;;;;;5098886;28;20197;-47
2021/01/27 01:45:24;;;;;;;21.85;14.13;;;3.40;99.90;;;;;;5099038;28;20745;-46
2021/01/27 01:47:53;;;;;;;23.08;14.80;;;2.90;99.90;;;;;;5098928;28;20240;-47
2021/01/27 01:50:20;;;;;;;22.17;14.52;;;2.90;99.90;;;;;;5099074;28;20301;-47
2021/01/27 01:52:46;;;;;;;20.63;14.35;;;3.90;99.90;;;;;;5098998;28;20303;-47
2021/01/27 01:55:15;;;;;;;21.48;14.07;;;3.50;99.90;;;;;;5098930;28;20199;-48
2021/01/27 01:57:43;;;;;;;23.92;13.90;;;3.70;99.90;;;;;;5099164;28;20214;-47
2021/01/27 02:00:11;;;;;;;26.77;15.07;;;2.90;99.90;;;;;;5098606;28;20201;-48
2021/01/27 02:02:40;;;;;;;19.58;13.35;;;3.50;99.90;;;;;;5098316;28;20201;-48
2021/01/27 02:05:09;;;;;;;21.35;13.02;;;3.40;99.90;;;;;;5098136;28;20277;-48
2021/01/27 02:07:36;;;;;;;26.25;16.48;;;3.70;99.90;;;;;;5097739;28;20684;-49
2021/01/27 02:10:03;;;;;;;23.65;14.30;;;3.70;99.90;;;;;;5098006;28;20613;-47
2021/01/27 02:12:44;;;;;;;24.80;14.65;;;3.70;99.90;;;;;;5097694;28;20216;-47
2021/01/27 02:15:23;;;;;;;23.27;13.10;;;3.60;99.90;;;;;;5097923;28;20243;-49
2021/01/27 02:17:57;;;;;;;17.52;13.05;;;3.90;99.90;;;;;;5097968;28;20218;-49
2021/01/27 02:20:54;;;;;;;27.15;15.55;;;3.70;99.90;;;;;;5098098;28;20222;-49
2021/01/27 02:24:00;;;;;;;20.40;14.40;;;4.00;99.90;;;;;;5052492;28;20259;-48
2021/01/27 02:27:00;;;;;;;23.52;14.15;;;3.90;99.90;;;;;;5094946;28;20528;-48
2021/01/27 02:30:02;;;;;;;24.92;15.10;;;4.00;99.90;;;;;;5094976;28;20201;-48
2021/01/27 02:32:53;;;;;;;25.33;15.05;;;3.70;99.90;;;;;;5065763;28;20244;-46
2021/01/27 02:35:25;;;;;;;22.70;14.43;;;3.60;99.90;;;;;;5094658;28;20248;-48
2021/01/27 02:37:59;;;;;;;22.45;14.15;;;4.10;99.90;;;;;;5094542;28;20217;-46
2021/01/27 02:40:32;;;;;;;20.55;13.18;;;3.90;99.90;;;;;;5094629;28;20190;-47
2021/01/27 02:43:08;;;;;;;26.05;15.75;;;3.80;99.90;;;;;;5094284;28;20232;-46
2021/01/27 02:45:39;;;;;;;24.17;15.05;;;4.00;99.90;;;;;;5094265;28;20198;-47
2021/01/27 02:48:13;;;;;;;25.77;15.40;;;3.70;99.90;;;;;;5094298;28;20238;-48
2021/01/27 02:50:43;;;;;;;23.30;15.75;;;3.90;99.90;;;;;;5094456;28;20199;-47
2021/01/27 02:53:17;;;;;;;26.83;14.27;;;3.40;99.90;;;;;;5094127;28;20227;-48
2021/01/27 02:55:50;;;;;;;21.80;15.05;;;4.10;99.90;;;;;;5094308;28;20369;-47
2021/01/27 02:58:24;;;;;;;25.67;15.20;;;3.20;99.90;;;;;;5094090;28;20222;-48
2021/01/27 03:00:57;;;;;;;25.10;15.15;;;3.30;99.90;;;;;;5094007;28;20268;-48
2021/01/27 03:03:29;;;;;;;24.42;16.55;;;3.10;99.90;;;;;;5093646;28;20194;-48
2021/01/27 03:06:01;;;;;;;26.58;15.68;;;3.20;99.90;;;;;;5094094;28;20205;-47
2021/01/27 03:08:30;;;;;;;22.98;15.48;;;3.20;99.90;;;;;;5094011;28;20230;-47
2021/01/27 03:11:05;;;;;;;23.95;16.30;;;3.20;99.90;;;;;;5094579;28;20194;-48
2021/01/27 03:13:32;;;;;;;26.27;15.15;;;3.10;99.90;;;;;;5093360;28;20267;-47
2021/01/27 03:16:02;;;;;;;25.30;15.82;;;3.10;99.90;;;;;;5092834;28;20748;-47
2021/01/27 03:18:31;;;;;;;29.88;18.38;;;3.10;99.90;;;;;;5093227;28;20622;-47
2021/01/27 03:21:05;;;;;;;23.27;17.15;;;3.10;99.90;;;;;;5093772;28;20190;-47
2021/01/27 03:23:37;;;;;;;26.60;16.52;;;3.10;99.90;;;;;;5093368;28;20197;-47
2021/01/27 03:26:14;;;;;;;29.58;17.55;;;3.10;99.90;;;;;;5093540;28;20187;-47
2021/01/27 03:28:45;;;;;;;28.67;17.83;;;2.80;99.90;;;;;;5093491;28;20718;-47
2021/01/27 03:31:12;;;;;;;28.73;16.73;;;2.60;99.90;;;;;;5093503;28;20659;-47
2021/01/27 03:33:45;;;;;;;28.75;16.05;;;2.60;99.90;;;;;;5092840;28;20585;-47
2021/01/27 03:36:15;;;;;;;27.42;16.33;;;2.60;99.90;;;;;;5093373;28;20195;-47
2021/01/27 03:38:45;;;;;;;24.45;16.65;;;2.80;99.90;;;;;;5093341;28;20211;-48
2021/01/27 03:41:16;;;;;;;24.52;17.17;;;2.40;99.90;;;;;;5093368;28;20194;-47
2021/01/27 03:43:48;;;;;;;24.55;16.38;;;2.60;99.90;;;;;;5092956;28;20191;-47
2021/01/27 03:46:21;;;;;;;28.67;18.17;;;2.70;99.90;;;;;;5093213;28;20264;-48
2021/01/27 03:48:54;;;;;;;29.80;17.38;;;2.60;99.90;;;;;;5093296;28;20225;-47
2021/01/27 03:51:24;;;;;;;25.52;16.63;;;2.60;99.90;;;;;;5093188;28;20574;-46
2021/01/27 03:53:52;;;;;;;26.25;16.20;;;2.70;99.90;;;;;;5092926;28;20227;-48
2021/01/27 03:56:24;;;;;;;29.05;17.98;;;2.80;99.90;;;;;;5093082;28;20195;-46
2021/01/27 03:58:51;;;;;;;25.55;16.98;;;2.60;99.90;;;;;;5093103;28;20215;-46
2021/01/27 04:01:20;;;;;;;25.33;16.98;;;2.60;99.90;;;;;;5093178;28;20199;-48
2021/01/27 04:03:47;;;;;;;30.67;17.33;;;1.90;99.90;;;;;;5092926;28;20265;-48
2021/01/27 04:06:14;;;;;;;28.15;17.70;;;2.60;99.90;;;;;;5093475;28;20202;-46
2021/01/27 04:08:41;;;;;;;32.60;20.90;;;2.90;99.90;;;;;;5093290;28;20275;-48
2021/01/27 04:11:08;;;;;;;34.78;23.77;;;2.60;99.90;;;;;;5093193;28;20191;-48
2021/01/27 04:13:35;;;;;;;32.30;20.30;;;2.60;99.90;;;;;;5092259;28;20214;-48
2021/01/27 04:16:02;;;;;;;29.95;19.65;;;2.50;99.90;;;;;;5092729;28;20195;-47
2021/01/27 04:18:29;;;;;;;36.83;23.65;;;2.70;99.90;;;;;;5092716;28;20215;-48
2021/01/27 04:20:56;;;;;;;39.17;21.23;;;2.80;99.90;;;;;;5092755;28;20195;-49
2021/01/27 04:23:23;;;;;;;32.03;20.20;;;2.90;99.90;;;;;;5092418;28;20195;-47
2021/01/27 04:25:50;;;;;;;36.78;23.10;;;2.90;99.90;;;;;;5092660;28;20198;-47
2021/01/27 04:28:16;;;;;;;33.75;22.08;;;2.30;99.90;;;;;;5092478;28;20214;-46
2021/01/27 04:30:43;;;;;;;38.30;22.83;;;2.90;99.90;;;;;;5091081;28;20259;-47
2021/01/27 04:33:11;;;;;;;33.63;22.70;;;2.90;99.90;;;;;;5092061;28;20571;-48
2021/01/27 04:35:38;;;;;;;38.22;23.42;;;3.20;99.90;;;;;;5092197;28;20197;-47
2021/01/27 04:38:06;;;;;;;38.45;22.02;;;2.80;99.90;;;;;;5092363;28;20214;-47
2021/01/27 04:40:35;;;;;;;38.47;23.42;;;2.90;99.90;;;;;;5092294;28;20187;-48
2021/01/27 04:43:03;;;;;;;34.63;22.13;;;2.80;99.90;;;;;;5091993;28;20190;-47
2021/01/27 04:45:30;;;;;;;34.30;22.88;;;2.20;99.90;;;;;;5091505;28;20198;-48
2021/01/27 04:48:01;;;;;;;35.58;22.08;;;3.10;99.90;;;;;;5091899;28;20279;-48
2021/01/27 04:50:31;;;;;;;38.40;24.15;;;3.10;99.90;;;;;;5092118;28;20222;-48
2021/01/27 04:53:16;;;;;;;36.53;22.35;;;2.80;99.90;;;;;;5091717;28;20211;-48
2021/01/27 04:56:15;;;;;;;39.50;24.90;;;2.90;99.90;;;;;;5091989;28;20206;-48
2021/01/27 04:58:50;;;;;;;38.80;25.30;;;2.80;99.90;;;;;;5092082;28;20222;-48
2021/01/27 05:01:28;;;;;;;37.92;22.15;;;2.80;99.90;;;;;;5092001;28;20228;-48
2021/01/27 05:04:10;;;;;;;38.58;21.23;;;3.00;99.90;;;;;;5091607;28;20289;-49
2021/01/27 05:06:44;;;;;;;33.40;20.35;;;2.80;99.90;;;;;;5091701;28;20199;-48
2021/01/27 05:09:14;;;;;;;31.35;21.48;;;2.50;99.90;;;;;;5105707;22;20225;-48
2021/01/27 05:11:44;;;;;;;32.72;20.45;;;2.50;99.90;;;;;;5090054;28;20238;-45
2021/01/27 05:14:15;;;;;;;29.13;19.20;;;2.50;99.90;;;;;;5090758;28;20259;-45
2021/01/27 05:16:41;;;;;;;36.67;21.73;;;2.50;99.90;;;;;;5089934;28;20206;-46
2021/01/27 05:19:08;;;;;;;36.83;21.55;;;2.00;99.90;;;;;;5091188;28;20210;-45
2021/01/27 05:21:37;;;;;;;33.25;20.58;;;2.40;99.90;;;;;;5091392;28;20197;-47
2021/01/27 05:24:05;;;;;;;37.10;21.65;;;2.40;99.90;;;;;;5091001;28;20631;-46
2021/01/27 05:26:37;;;;;;;35.92;23.58;;;2.80;99.90;;;;;;5091167;28;20195;-46
2021/01/27 05:29:07;;;;;;;36.03;23.00;;;2.70;99.90;;;;;;5091360;28;20257;-45
2021/01/27 05:31:59;;;;;;;40.63;24.10;;;1.90;99.90;;;;;;5091460;28;20243;-46
2021/01/27 05:34:32;;;;;;;40.08;24.73;;;2.40;99.90;;;;;;5089067;28;20298;-45
2021/01/27 05:36:58;;;;;;;40.38;23.58;;;2.90;99.90;;;;;;5090808;28;20194;-45
2021/01/27 05:39:28;;;;;;;43.88;24.90;;;2.70;99.90;;;;;;5090880;28;20214;-44
2021/01/27 05:42:27;;;;;;;47.70;25.02;;;2.80;99.90;;;;;;5090858;28;20643;-45
2021/01/27 05:44:56;;;;;;;51.85;27.70;;;2.60;99.90;;;;;;5090657;28;20277;-45
2021/01/27 05:47:33;;;;;;;45.53;27.20;;;2.60;99.90;;;;;;5090741;28;20210;-44
2021/01/27 05:50:13;;;;;;;49.25;26.38;;;2.60;99.90;;;;;;5089718;28;20194;-44
2021/01/27 05:52:39;;;;;;;51.47;29.20;;;2.30;99.90;;;;;;5090268;28;20571;-45
2021/01/27 05:55:08;;;;;;;69.32;34.05;;;2.80;99.90;;;;;;5091586;28;20553;-46
2021/01/27 05:57:34;;;;;;;70.70;36.67;;;2.70;99.90;;;;;;5093663;28;20214;-45
2021/01/27 06:00:09;;;;;;;62.97;36.38;;;2.80;99.90;;;;;;5095362;28;20209;-45
2021/01/27 06:02:39;;;;;;;59.38;34.28;;;2.80;99.90;;;;;;5094997;28;20186;-44
2021/01/27 06:05:07;;;;;;;59.10;33.60;;;2.90;99.90;;;;;;5094555;28;20209;-46
2021/01/27 06:07:34;;;;;;;66.25;31.70;;;3.30;99.90;;;;;;5095501;28;20230;-44
2021/01/27 06:10:18;;;;;;;61.92;34.20;;;3.20;99.90;;;;;;5094643;28;20191;-45
2021/01/27 06:12:44;;;;;;;56.38;31.95;;;3.20;99.90;;;;;;5093946;28;20309;-46
2021/01/27 06:15:17;;;;;;;53.33;32.17;;;3.10;99.90;;;;;;5094628;28;20204;-45
2021/01/27 06:17:46;;;;;;;53.03;32.08;;;3.30;99.90;;;;;;5094202;28;20590;-45
2021/01/27 06:20:27;;;;;;;51.53;30.52;;;3.30;99.90;;;;;;5093928;28;20205;-47
2021/01/27 06:23:13;;;;;;;61.45;28.52;;;3.10;99.90;;;;;;5093762;28;20576;-45
2021/01/27 06:25:57;;;;;;;49.92;29.77;;;3.30;99.90;;;;;;5094370;28;20260;-46
2021/01/27 06:28:55;;;;;;;49.90;29.67;;;3.20;99.90;;;;;;5093982;28;20264;-45
2021/01/27 06:31:33;;;;;;;54.90;30.33;;;3.20;99.90;;;;;;5093832;28;20194;-45
2021/01/27 06:34:23;;;;;;;49.22;29.42;;;3.50;99.90;;;;;;5093493;28;20643;-45
2021/01/27 06:37:00;;;;;;;50.88;30.88;;;3.40;99.90;;;;;;5092521;28;20202;-46
2021/01/27 06:39:58;;;;;;;42.88;28.20;;;3.20;99.90;;;;;;5093800;28;20202;-46
2021/01/27 06:42:46;;;;;;;75.65;46.17;;;3.60;99.90;;;;;;5092736;28;20647;-48
2021/01/27 06:45:20;;;;;;;45.10;29.05;;;3.10;99.90;;;;;;5093478;28;20642;-46
2021/01/27 06:48:09;;;;;;;42.03;27.25;;;3.30;99.90;;;;;;5091723;28;20218;-46
2021/01/27 06:51:04;;;;;;;48.28;28.83;;;3.20;99.90;;;;;;5093602;28;20282;-46
2021/01/27 06:53:57;;;;;;;45.67;27.73;;;3.60;99.90;;;;;;5092996;28;20760;-46
2021/01/27 06:56:36;;;;;;;52.45;27.10;;;3.50;99.90;;;;;;5093584;28;20203;-45
2021/01/27 06:59:45;;;;;;;48.25;28.25;;;3.70;99.90;;;;;;5093525;28;20218;-46
2021/01/27 07:02:44;;;;;;;49.35;29.08;;;3.70;99.90;;;;;;5093365;28;20252;-45
2021/01/27 07:05:34;;;;;;;47.78;27.40;;;3.40;99.90;;;;;;5093955;28;20209;-45
2021/01/27 07:08:11;;;;;;;40.70;25.10;;;3.20;99.90;;;;;;5092287;28;20214;-46
2021/01/27 07:11:05;;;;;;;50.33;27.13;;;3.70;99.90;;;;;;5092992;28;20190;-46
2021/01/27 07:13:51;;;;;;;42.75;26.00;;;3.70;99.90;;;;;;5092385;28;20229;-47
2021/01/27 07:16:30;;;;;;;46.15;29.85;;;3.10;99.90;;;;;;5084090;28;20208;-46
2021/01/27 07:19:24;;;;;;;44.97;28.02;;;3.20;99.90;;;;;;5092939;28;20218;-46
2021/01/27 07:21:57;;;;;;;47.92;27.70;;;3.70;99.90;;;;;;5093126;28;20267;-44
2021/01/27 07:24:31;;;;;;;41.28;24.98;;;3.60;99.90;;;;;;5091193;28;20198;-46
2021/01/27 07:27:03;;;;;;;44.30;26.38;;;3.90;99.90;;;;;;5092512;28;20198;-46
2021/01/27 07:29:34;;;;;;;46.83;27.10;;;3.60;99.90;;;;;;5092960;28;20634;-47
2021/01/27 07:32:05;;;;;;;43.47;26.05;;;3.90;99.90;;;;;;5092585;28;20703;-46
2021/01/27 07:34:36;;;;;;;46.28;25.90;;;3.70;99.90;;;;;;5092357;28;20604;-47
2021/01/27 07:37:16;;;;;;;54.05;27.60;;;3.60;99.90;;;;;;5092503;28;20193;-47
2021/01/27 07:39:54;;;;;;;40.97;25.58;;;4.00;99.90;;;;;;5092606;28;20277;-46
2021/01/27 07:42:26;;;;;;;43.10;26.60;;;3.90;99.90;;;;;;5092159;28;20278;-46
2021/01/27 07:44:56;;;;;;;44.08;29.38;;;3.70;99.90;;;;;;5092576;28;20273;-46
2021/01/27 07:47:44;;;;;;;41.95;26.60;;;3.70;99.90;;;;;;5092553;28;20285;-45
2021/01/27 07:50:12;;;;;;;40.70;24.67;;;4.10;99.90;;;;;;5092264;28;20195;-45
2021/01/27 07:52:46;;;;;;;38.30;26.63;;;4.20;99.90;;;;;;5091608;28;20308;-47
2021/01/27 07:55:17;;;;;;;43.38;26.33;;;4.10;99.90;;;;;;5092453;28;20194;-44
2021/01/27 07:57:53;;;;;;;35.85;24.48;;;4.20;99.90;;;;;;5092408;28;20735;-47
2021/01/27 08:00:25;;;;;;;39.05;26.23;;;4.20;99.90;;;;;;5092273;28;20199;-47
2021/01/27 08:03:01;;;;;;;39.55;26.02;;;3.90;99.90;;;;;;5091702;28;20193;-45
2021/01/27 08:05:35;;;;;;;41.58;25.65;;;4.20;99.90;;;;;;5092144;28;20654;-45
2021/01/27 08:08:04;;;;;;;38.03;25.33;;;4.10;99.90;;;;;;5091922;28;20306;-44
2021/01/27 08:10:33;;;;;;;38.80;24.85;;;4.30;99.90;;;;;;5091842;28;20191;-45
2021/01/27 08:13:02;;;;;;;37.95;24.83;;;4.00;99.90;;;;;;5091398;28;20474;-46
2021/01/27 08:15:44;;;;;;;36.97;23.98;;;4.20;99.90;;;;;;5091898;28;20222;-45
2021/01/27 08:18:16;;;;;;;34.00;23.52;;;4.30;99.90;;;;;;5092235;28;20289;-46
2021/01/27 08:20:44;;;;;;;36.00;24.58;;;4.10;99.90;;;;;;5091029;28;20290;-46
2021/01/27 08:23:47;;;;;;;40.25;24.83;;;4.10;99.90;;;;;;5091105;28;20191;-47
2021/01/27 08:26:50;;;;;;;36.55;24.98;;;4.70;99.90;;;;;;5091610;28;20311;-46
2021/01/27 08:29:34;;;;;;;39.78;25.48;;;4.50;99.90;;;;;;5091656;28;20449;-46
2021/01/27 08:32:23;;;;;;;34.15;24.60;;;4.70;99.90;;;;;;5091650;28;20631;-45
2021/01/27 08:34:51;;;;;;;37.33;25.05;;;4.30;99.90;;;;;;5091746;28;20233;-46
2021/01/27 08:37:23;;;;;;;37.95;24.83;;;4.30;99.90;;;;;;5091773;28;20520;-48
2021/01/27 08:40:11;;;;;;;41.17;25.70;;;4.70;99.90;;;;;;5091360;28;20239;-45
2021/01/27 08:42:42;;;;;;;38.42;25.70;;;4.60;99.90;;;;;;5090621;28;20194;-47
2021/01/27 08:45:19;;;;;;;32.88;23.73;;;4.70;99.90;;;;;;5090941;28;20265;-47
2021/01/27 08:47:46;;;;;;;39.05;27.45;;;4.80;99.90;;;;;;5090729;28;20741;-46
2021/01/27 08:50:35;;;;;;;41.00;25.85;;;4.90;99.90;;;;;;5091229;28;20670;-44
2021/01/27 08:53:06;;;;;;;41.60;26.17;;;4.70;99.90;;;;;;5090672;28;20682;-46
2021/01/27 08:55:38;;;;;;;45.30;27.33;;;4.70;99.90;;;;;;5090940;28;20677;-47
2021/01/27 08:58:35;;;;;;;41.80;27.38;;;4.60;99.90;;;;;;5089420;28;20626;-45
2021/01/27 09:01:10;;;;;;;42.42;29.05;;;4.80;99.90;;;;;;5076294;28;20287;-46
2021/01/27 09:03:59;;;;;;;41.63;26.67;;;4.90;99.90;;;;;;5091056;28;20553;-44
2021/01/27 09:06:41;;;;;;;38.85;26.63;;;4.70;99.90;;;;;;5078219;28;20281;-47
2021/01/27 09:09:26;;;;;;;39.40;25.55;;;4.70;99.90;;;;;;5089076;28;20232;-46
2021/01/27 09:11:57;;;;;;;39.40;26.15;;;4.70;99.90;;;;;;5090784;28;20265;-44
2021/01/27 09:14:24;;;;;;;40.28;26.40;;;4.60;99.90;;;;;;5090201;28;20201;-46
2021/01/27 09:16:52;;;;;;;34.97;25.85;;;4.80;99.90;;;;;;5090720;28;20245;-44
2021/01/27 09:19:21;;;;;;;37.63;27.77;;;4.50;99.90;;;;;;5090706;28;20253;-45
2021/01/27 09:22:02;;;;;;;44.42;27.77;;;4.80;99.90;;;;;;5090504;28;20635;-45
2021/01/27 09:24:33;;;;;;;40.30;28.10;;;4.90;99.90;;;;;;5090414;28;20203;-46
2021/01/27 09:27:17;;;;;;;42.60;27.88;;;4.90;99.90;;;;;;5089693;28;20734;-45
2021/01/27 09:29:46;;;;;;;46.38;28.80;;;4.70;99.90;;;;;;5089918;28;20202;-46
2021/01/27 09:32:16;;;;;;;41.28;25.10;;;4.90;99.90;;;;;;5092876;28;20273;-46
2021/01/27 09:34:43;;;;;;;37.78;26.67;;;4.90;99.90;;;;;;5094642;28;20592;-46
2021/01/27 09:37:15;;;;;;;37.42;26.25;;;5.00;99.90;;;;;;5094957;28;20293;-45
2021/01/27 09:39:48;;;;;;;43.47;30.17;;;5.00;99.90;;;;;;5095478;28;20202;-44
2021/01/27 09:42:19;;;;;;;37.53;26.45;;;5.20;99.90;;;;;;5095161;28;20217;-45
2021/01/27 09:44:49;;;;;;;35.03;26.48;;;5.20;99.90;;;;;;5094833;28;20218;-46
2021/01/27 09:47:17;;;;;;;43.00;27.83;;;5.50;99.90;;;;;;5094481;28;20287;-46
2021/01/27 09:49:48;;;;;;;38.80;26.85;;;5.20;99.90;;;;;;5094559;28;20218;-45
2021/01/27 09:52:17;;;;;;;44.85;30.65;;;5.70;99.90;;;;;;5094613;28;20748;-46
2021/01/27 09:54:48;;;;;;;41.92;29.35;;;4.90;99.90;;;;;;5093157;28;20217;-45
2021/01/27 09:57:19;;;;;;;42.95;30.00;;;5.50;99.90;;;;;;5092875;28;20524;-44
2021/01/27 09:59:50;;;;;;;37.30;28.35;;;5.60;99.90;;;;;;5093945;28;20195;-44
2021/01/27 10:02:25;;;;;;;32.63;25.10;;;5.00;99.90;;;;;;5094362;28;20270;-46
2021/01/27 10:04:51;;;;;;;27.42;22.08;;;5.70;99.90;;;;;;5094547;28;20197;-45
2021/01/27 10:07:23;;;;;;;32.40;25.02;;;5.20;99.90;;;;;;5094022;28;20190;-45
2021/01/27 10:09:52;;;;;;;31.58;23.70;;;5.80;99.90;;;;;;5094148;28;20328;-45
2021/01/27 10:12:22;;;;;;;32.33;24.42;;;5.70;99.90;;;;;;5093487;28;20210;-46
2021/01/27 10:14:58;;;;;;;35.05;25.45;;;5.70;99.90;;;;;;5092570;28;20642;-45
2021/01/27 10:17:29;;;;;;;33.47;24.08;;;5.60;99.90;;;;;;5094168;28;20214;-45
2021/01/27 10:20:07;;;;;;;33.72;25.67;;;5.90;99.90;;;;;;5093936;28;20213;-46
2021/01/27 10:22:38;;;;;;;35.70;26.08;;;5.70;99.90;;;;;;5095307;28;20269;-46
2021/01/27 10:25:31;;;;;;;31.45;24.75;;;5.90;99.90;;;;;;5091951;28;20520;-46
2021/01/27 10:28:08;;;;;;;32.85;24.25;;;5.90;99.90;;;;;;5093213;28;20229;-47
2021/01/27 10:30:44;;;;;;;32.92;23.77;;;6.00;99.90;;;;;;5093839;28;20197;-45
2021/01/27 10:33:47;;;;;;;32.58;23.90;;;5.80;99.90;;;;;;5093395;28;20206;-45
2021/01/27 10:36:31;;;;;;;32.20;22.30;;;5.90;99.90;;;;;;5030847;28;20200;-49
2021/01/27 10:39:20;;;;;;;34.45;24.08;;;5.90;99.90;;;;;;5030772;28;20274;-48
2021/01/27 10:41:48;;;;;;;32.85;23.00;;;5.70;99.90;;;;;;5076870;28;20203;-46
2021/01/27 10:44:34;;;;;;;32.85;24.35;;;5.80;99.90;;;;;;5091840;28;20188;-47
2021/01/27 10:47:19;;;;;;;32.22;21.98;;;5.50;99.90;;;;;;5093668;28;20195;-47
2021/01/27 10:49:48;;;;;;;35.60;23.70;;;5.30;99.90;;;;;;5092413;28;20257;-45
2021/01/27 10:52:20;;;;;;;31.75;23.15;;;5.60;99.90;;;;;;5093547;28;20191;-46
2021/01/27 10:54:46;;;;;;;31.85;22.92;;;5.70;99.90;;;;;;5093012;28;20212;-45
2021/01/27 10:57:18;;;;;;;28.45;21.48;;;5.70;99.90;;;;;;5093074;28;20259;-45
2021/01/27 10:59:45;;;;;;;29.70;23.02;;;5.80;99.90;;;;;;5092889;28;20191;-45
2021/01/27 11:02:12;;;;;;;29.80;22.88;;;5.90;99.90;;;;;;5091580;28;20270;-47
2021/01/27 11:04:39;;;;;;;31.23;23.13;;;5.10;99.90;;;;;;5092944;28;20283;-47
2021/01/27 11:07:05;;;;;;;25.93;21.10;;;5.40;99.90;;;;;;5092905;28;20391;-45
2021/01/27 11:09:32;;;;;;;31.33;23.95;;;5.40;99.90;;;;;;5116636;22;20484;-46
2021/01/27 11:11:58;;;;;;;30.20;23.52;;;5.60;99.90;;;;;;5094117;28;20194;-46
2021/01/27 11:14:27;;;;;;;26.20;21.20;;;5.70;99.90;;;;;;5093603;28;20265;-46
2021/01/27 11:16:53;;;;;;;31.27;23.27;;;5.90;99.90;;;;;;5094470;28;20207;-44
2021/01/27 11:19:20;;;;;;;34.75;23.08;;;6.00;99.90;;;;;;5092855;28;20242;-45
2021/01/27 11:21:47;;;;;;;32.60;23.85;;;5.70;99.90;;;;;;5094390;28;20560;-45
2021/01/27 11:24:13;;;;;;;26.05;21.30;;;5.70;99.90;;;;;;5094170;28;20218;-45
2021/01/27 11:26:40;;;;;;;30.17;23.20;;;6.00;99.90;;;;;;5093920;28;20303;-47
2021/01/27 11:29:06;;;;;;;31.40;22.37;;;5.90;99.90;;;;;;5093765;28;20248;-46
2021/01/27 11:31:33;;;;;;;31.38;23.85;;;5.80;99.90;;;;;;5092129;28;20453;-46
2021/01/27 11:33:59;;;;;;;28.33;21.47;;;6.10;99.90;;;;;;5093150;28;20218;-44
2021/01/27 11:36:26;;;;;;;30.93;22.30;;;6.10;99.90;;;;;;5092693;28;20544;-46
2021/01/27 11:38:53;;;;;;;26.03;20.23;;;6.10;99.90;;;;;;5093085;28;20461;-46
2021/01/27 11:41:21;;;;;;;23.97;18.40;;;6.20;99.90;;;;;;5084836;28;20449;-45
2021/01/27 11:43:48;;;;;;;21.40;16.43;;;6.50;99.90;;;;;;5073288;28;20433;-45
2021/01/27 11:46:18;;;;;;;19.80;16.13;;;6.20;99.90;;;;;;5092843;28;20411;-45
2021/01/27 11:48:45;;;;;;;21.23;16.93;;;6.10;99.90;;;;;;5093921;28;20424;-46
2021/01/27 11:51:13;;;;;;;19.47;15.30;;;6.20;99.90;;;;;;5094290;28;20768;-44
2021/01/27 11:53:41;;;;;;;19.93;14.27;;;6.30;99.90;;;;;;5109851;28;20597;-47
2021/01/27 11:56:09;;;;;;;18.40;14.80;;;6.30;99.90;;;;;;5093045;28;20441;-46
2021/01/27 11:58:36;;;;;;;23.10;15.77;;;6.40;99.90;;;;;;5093924;28;20457;-46
2021/01/27 12:01:03;;;;;;;17.80;14.57;;;6.00;99.90;;;;;;5092232;28;20214;-44
2021/01/27 12:03:29;;;;;;;18.80;14.60;;;6.30;99.90;;;;;;5092839;28;20426;-45
2021/01/27 12:05:57;;;;;;;22.13;16.60;;;6.20;99.90;;;;;;5094262;28;20191;-46
2021/01/27 12:08:23;;;;;;;21.63;15.40;;;6.40;99.90;;;;;;5094113;28;20477;-46
2021/01/27 12:10:51;;;;;;;20.43;15.00;;;6.10;99.90;;;;;;5093265;28;20936;-47
2021/01/27 12:13:17;;;;;;;20.80;15.10;;;6.40;99.90;;;;;;5093752;28;20499;-46
2021/01/27 12:15:44;;;;;;;17.27;14.07;;;6.30;99.90;;;;;;5092691;28;20438;-45
2021/01/27 12:18:12;;;;;;;23.53;14.80;;;6.50;99.90;;;;;;5092603;28;20451;-46
2021/01/27 12:20:38;;;;;;;19.77;15.77;;;6.40;99.90;;;;;;5092395;28;20568;-45
2021/01/27 12:23:05;;;;;;;19.60;15.38;;;6.60;99.90;;;;;;5092108;28;20429;-46
2021/01/27 12:25:31;;;;;;;19.93;16.37;;;6.30;99.90;;;;;;5092629;28;20267;-45
2021/01/27 12:27:59;;;;;;;26.37;15.47;;;6.60;99.90;;;;;;5093343;28;20513;-46
2021/01/27 12:30:26;;;;;;;20.60;16.40;;;6.50;99.90;;;;;;5092040;28;20563;-45
2021/01/27 12:32:52;;;;;;;21.17;15.10;;;6.50;99.90;;;;;;5091468;28;20832;-46
2021/01/27 12:35:20;;;;;;;20.73;16.20;;;6.40;99.90;;;;;;5092622;28;20436;-45
2021/01/27 12:37:47;;;;;;;27.50;14.83;;;6.60;99.90;;;;;;5090946;28;20818;-44
2021/01/27 12:40:15;;;;;;;20.10;13.43;;;6.40;99.90;;;;;;5091776;28;20540;-44
2021/01/27 12:42:42;;;;;;;19.03;13.10;;;6.50;99.90;;;;;;5092124;28;20433;-45
2021/01/27 12:45:11;;;;;;;23.83;12.30;;;6.80;99.90;;;;;;5091835;28;20507;-44
2021/01/27 12:47:38;;;;;;;25.40;11.87;;;6.80;99.90;;;;;;5091149;28;20496;-46
2021/01/27 12:50:06;;;;;;;15.53;10.90;;;6.80;99.90;;;;;;5090482;28;20522;-45
2021/01/27 12:52:32;;;;;;;26.43;11.60;;;6.80;99.90;;;;;;5091430;28;20525;-45
2021/01/27 12:54:59;;;;;;;21.73;13.17;;;7.00;99.90;;;;;;5092444;28;20433;-47
2021/01/27 12:57:25;;;;;;;15.87;12.30;;;7.10;99.90;;;;;;5093199;28;20425;-45
2021/01/27 12:59:52;;;;;;;12.60;10.53;;;6.40;99.90;;;;;;5093115;28;20783;-46
2021/01/27 13:02:19;;;;;;;21.50;10.67;;;6.90;99.90;;;;;;5091490;28;20421;-47
2021/01/27 13:04:46;;;;;;;18.30;10.40;;;6.90;99.90;;;;;;5092028;28;20833;-45
2021/01/27 13:07:12;;;;;;;16.90;9.93;;;6.30;99.90;;;;;;5088709;28;20424;-45